sensor_id;sensor_type;location;lat;lon;timestamp;P1;durP1;ratioP1;P2;durP2;ratioP2
40717;SDS011;26405;51.850;-2.246;2023-02-22T00:01:30;16.98;;;9.50;;
40717;SDS011;26405;51.850;-2.246;2023-02-22T00:04:11;19.15;;;10.93;;
40717;SDS011;26405;51.850;-2.246;2023-02-22T00:06:37;19.55;;;10.90;;
40717;SDS011;26405;51.850;-2.246;2023-02-22T00:09:02;19.10;;;11.10;;
40717;SDS011;26405;51.850;-2.246;2023-02-22T00:11:27;19.88;;;11.55;;
40717;SDS011;26405;51.850;-2.246;2023-02-22T00:13:53;19.52;;;11.32;;
40717;SDS011;26405;51.850;-2.246;2023-02-22T00:16:21;20.17;;;12.18;;
40717;SDS011;26405;51.850;-2.246;2023-02-22T00:18:47;21.45;;;12.95;;
40717;SDS011;26405;51.850;-2.246;2023-02-22T00:21:13;21.23;;;12.98;;
40717;SDS011;26405;51.850;-2.246;2023-02-22T00:23:41;24.35;;;14.25;;
40717;SDS011;26405;51.850;-2.246;2023-02-22T00:26:17;21.25;;;12.88;;
40717;SDS011;26405;51.850;-2.246;2023-02-22T00:28:44;20.85;;;12.88;;
40717;SDS011;26405;51.850;-2.246;2023-02-22T00:31:10;21.00;;;12.43;;
40717;SDS011;26405;51.850;-2.246;2023-02-22T00:33:37;21.30;;;13.55;;
40717;SDS011;26405;51.850;-2.246;2023-02-22T00:38:27;23.48;;;15.18;;
40717;SDS011;26405;51.850;-2.246;2023-02-22T00:40:53;22.58;;;14.10;;
40717;SDS011;26405;51.850;-2.246;2023-02-22T00:43:19;22.90;;;14.53;;
40717;SDS011;26405;51.850;-2.246;2023-02-22T00:45:44;25.98;;;15.43;;
40717;SDS011;26405;51.850;-2.246;2023-02-22T00:48:10;21.38;;;13.23;;
40717;SDS011;26405;51.850;-2.246;2023-02-22T00:50:35;21.90;;;13.73;;
40717;SDS011;26405;51.850;-2.246;2023-02-22T00:53:01;22.23;;;14.63;;
40717;SDS011;26405;51.850;-2.246;2023-02-22T00:55:32;21.98;;;13.38;;
40717;SDS011;26405;51.850;-2.246;2023-02-22T00:57:57;20.90;;;13.50;;
40717;SDS011;26405;51.850;-2.246;2023-02-22T01:00:25;20.73;;;12.98;;
40717;SDS011;26405;51.850;-2.246;2023-02-22T01:02:51;21.52;;;13.98;;
40717;SDS011;26405;51.850;-2.246;2023-02-22T01:05:17;20.63;;;12.55;;
40717;SDS011;26405;51.850;-2.246;2023-02-22T01:07:43;22.55;;;13.75;;
40717;SDS011;26405;51.850;-2.246;2023-02-22T01:10:08;21.48;;;13.63;;
40717;SDS011;26405;51.850;-2.246;2023-02-22T01:12:34;22.83;;;13.63;;
40717;SDS011;26405;51.850;-2.246;2023-02-22T01:15:00;20.23;;;12.82;;
40717;SDS011;26405;51.850;-2.246;2023-02-22T01:17:25;23.05;;;14.43;;
40717;SDS011;26405;51.850;-2.246;2023-02-22T01:19:51;22.50;;;14.32;;
40717;SDS011;26405;51.850;-2.246;2023-02-22T01:22:17;22.50;;;14.75;;
40717;SDS011;26405;51.850;-2.246;2023-02-22T01:24:42;22.25;;;14.18;;
40717;SDS011;26405;51.850;-2.246;2023-02-22T01:27:08;23.33;;;14.02;;
40717;SDS011;26405;51.850;-2.246;2023-02-22T01:29:34;23.65;;;14.30;;
40717;SDS011;26405;51.850;-2.246;2023-02-22T01:32:00;24.83;;;16.23;;
40717;SDS011;26405;51.850;-2.246;2023-02-22T01:34:25;24.63;;;15.05;;
40717;SDS011;26405;51.850;-2.246;2023-02-22T01:36:51;22.92;;;14.68;;
40717;SDS011;26405;51.850;-2.246;2023-02-22T01:39:16;23.60;;;14.90;;
40717;SDS011;26405;51.850;-2.246;2023-02-22T01:41:42;25.35;;;15.38;;
40717;SDS011;26405;51.850;-2.246;2023-02-22T01:46:45;24.05;;;14.52;;
40717;SDS011;26405;51.850;-2.246;2023-02-22T01:49:10;23.33;;;15.27;;
40717;SDS011;26405;51.850;-2.246;2023-02-22T01:51:37;24.05;;;16.13;;
40717;SDS011;26405;51.850;-2.246;2023-02-22T01:56:30;23.50;;;15.18;;
40717;SDS011;26405;51.850;-2.246;2023-02-22T01:58:58;23.20;;;15.05;;
40717;SDS011;26405;51.850;-2.246;2023-02-22T02:01:25;27.98;;;17.38;;
40717;SDS011;26405;51.850;-2.246;2023-02-22T02:03:51;28.70;;;19.52;;
40717;SDS011;26405;51.850;-2.246;2023-02-22T02:06:16;24.52;;;16.98;;
40717;SDS011;26405;51.850;-2.246;2023-02-22T02:11:11;24.70;;;16.15;;
40717;SDS011;26405;51.850;-2.246;2023-02-22T02:13:36;23.95;;;16.60;;
40717;SDS011;26405;51.850;-2.246;2023-02-22T02:16:02;26.02;;;17.65;;
40717;SDS011;26405;51.850;-2.246;2023-02-22T02:18:27;23.50;;;15.68;;
40717;SDS011;26405;51.850;-2.246;2023-02-22T02:41:31;22.65;;;14.38;;
40717;SDS011;26405;51.850;-2.246;2023-02-22T02:44:04;24.30;;;15.55;;
40717;SDS011;26405;51.850;-2.246;2023-02-22T02:46:34;22.85;;;14.18;;
40717;SDS011;26405;51.850;-2.246;2023-02-22T02:49:03;24.20;;;14.43;;
40717;SDS011;26405;51.850;-2.246;2023-02-22T02:51:31;23.27;;;14.02;;
40717;SDS011;26405;51.850;-2.246;2023-02-22T02:53:58;24.20;;;14.65;;
40717;SDS011;26405;51.850;-2.246;2023-02-22T02:56:24;22.42;;;13.82;;
40717;SDS011;26405;51.850;-2.246;2023-02-22T02:58:50;22.42;;;14.02;;
40717;SDS011;26405;51.850;-2.246;2023-02-22T03:01:21;22.35;;;14.45;;
40717;SDS011;26405;51.850;-2.246;2023-02-22T03:14:21;23.48;;;15.25;;
40717;SDS011;26405;51.850;-2.246;2023-02-22T03:16:51;26.42;;;16.98;;
40717;SDS011;26405;51.850;-2.246;2023-02-22T03:21:48;26.67;;;16.33;;
40717;SDS011;26405;51.850;-2.246;2023-02-22T03:24:24;25.73;;;16.00;;
40717;SDS011;26405;51.850;-2.246;2023-02-22T03:29:36;26.00;;;17.13;;
40717;SDS011;26405;51.850;-2.246;2023-02-22T03:32:04;23.95;;;16.17;;
40717;SDS011;26405;51.850;-2.246;2023-02-22T03:34:33;24.73;;;15.80;;
40717;SDS011;26405;51.850;-2.246;2023-02-22T03:37:01;24.35;;;16.08;;
40717;SDS011;26405;51.850;-2.246;2023-02-22T03:39:28;24.92;;;16.73;;
40717;SDS011;26405;51.850;-2.246;2023-02-22T03:44:21;25.08;;;17.20;;
40717;SDS011;26405;51.850;-2.246;2023-02-22T03:46:48;24.50;;;16.02;;
40717;SDS011;26405;51.850;-2.246;2023-02-22T03:51:46;25.15;;;16.67;;
40717;SDS011;26405;51.850;-2.246;2023-02-22T03:54:11;24.38;;;17.33;;
40717;SDS011;26405;51.850;-2.246;2023-02-22T03:59:32;25.55;;;16.50;;
40717;SDS011;26405;51.850;-2.246;2023-02-22T04:01:57;25.63;;;16.50;;
40717;SDS011;26405;51.850;-2.246;2023-02-22T04:04:23;25.20;;;17.23;;
40717;SDS011;26405;51.850;-2.246;2023-02-22T04:06:48;24.88;;;17.42;;
40717;SDS011;26405;51.850;-2.246;2023-02-22T04:09:14;26.55;;;18.30;;
40717;SDS011;26405;51.850;-2.246;2023-02-22T04:11:39;25.48;;;17.67;;
40717;SDS011;26405;51.850;-2.246;2023-02-22T04:14:04;26.45;;;18.20;;
40717;SDS011;26405;51.850;-2.246;2023-02-22T04:16:30;25.90;;;18.02;;
40717;SDS011;26405;51.850;-2.246;2023-02-22T04:18:55;25.98;;;17.40;;
40717;SDS011;26405;51.850;-2.246;2023-02-22T04:21:20;24.73;;;16.85;;
40717;SDS011;26405;51.850;-2.246;2023-02-22T04:23:46;26.80;;;17.92;;
40717;SDS011;26405;51.850;-2.246;2023-02-22T04:26:11;25.58;;;17.52;;
40717;SDS011;26405;51.850;-2.246;2023-02-22T04:28:37;25.05;;;17.20;;
40717;SDS011;26405;51.850;-2.246;2023-02-22T04:31:02;24.25;;;16.92;;
40717;SDS011;26405;51.850;-2.246;2023-02-22T04:33:27;24.42;;;16.38;;
40717;SDS011;26405;51.850;-2.246;2023-02-22T04:35:52;25.10;;;16.95;;
40717;SDS011;26405;51.850;-2.246;2023-02-22T04:38:17;24.45;;;16.48;;
40717;SDS011;26405;51.850;-2.246;2023-02-22T04:40:43;25.13;;;17.58;;
40717;SDS011;26405;51.850;-2.246;2023-02-22T04:43:08;23.25;;;15.30;;
40717;SDS011;26405;51.850;-2.246;2023-02-22T04:45:33;25.08;;;17.00;;
40717;SDS011;26405;51.850;-2.246;2023-02-22T04:47:58;25.23;;;16.55;;
40717;SDS011;26405;51.850;-2.246;2023-02-22T04:50:24;25.00;;;16.48;;
40717;SDS011;26405;51.850;-2.246;2023-02-22T04:52:49;24.20;;;15.80;;
40717;SDS011;26405;51.850;-2.246;2023-02-22T04:55:14;24.60;;;17.05;;
40717;SDS011;26405;51.850;-2.246;2023-02-22T04:57:40;24.55;;;16.63;;
40717;SDS011;26405;51.850;-2.246;2023-02-22T05:00:06;24.38;;;16.55;;
40717;SDS011;26405;51.850;-2.246;2023-02-22T05:02:34;25.80;;;16.98;;
40717;SDS011;26405;51.850;-2.246;2023-02-22T05:04:59;25.23;;;16.92;;
40717;SDS011;26405;51.850;-2.246;2023-02-22T05:07:24;25.05;;;16.85;;
40717;SDS011;26405;51.850;-2.246;2023-02-22T05:09:49;25.95;;;16.90;;
40717;SDS011;26405;51.850;-2.246;2023-02-22T05:12:15;26.83;;;17.92;;
40717;SDS011;26405;51.850;-2.246;2023-02-22T05:14:40;25.00;;;16.15;;
40717;SDS011;26405;51.850;-2.246;2023-02-22T05:17:06;26.15;;;18.77;;
40717;SDS011;26405;51.850;-2.246;2023-02-22T05:19:31;24.83;;;17.45;;
40717;SDS011;26405;51.850;-2.246;2023-02-22T05:21:56;26.27;;;17.20;;
40717;SDS011;26405;51.850;-2.246;2023-02-22T05:24:21;27.50;;;18.48;;
40717;SDS011;26405;51.850;-2.246;2023-02-22T05:26:47;26.55;;;17.70;;
40717;SDS011;26405;51.850;-2.246;2023-02-22T05:29:15;27.63;;;19.63;;
40717;SDS011;26405;51.850;-2.246;2023-02-22T05:31:40;29.45;;;19.20;;
40717;SDS011;26405;51.850;-2.246;2023-02-22T05:34:06;26.20;;;17.60;;
40717;SDS011;26405;51.850;-2.246;2023-02-22T05:36:31;27.13;;;18.27;;
40717;SDS011;26405;51.850;-2.246;2023-02-22T05:38:56;28.95;;;18.60;;
40717;SDS011;26405;51.850;-2.246;2023-02-22T05:41:22;26.17;;;17.92;;
40717;SDS011;26405;51.850;-2.246;2023-02-22T05:43:47;28.05;;;17.63;;
40717;SDS011;26405;51.850;-2.246;2023-02-22T05:46:12;27.80;;;18.77;;
40717;SDS011;26405;51.850;-2.246;2023-02-22T05:48:38;25.70;;;17.10;;
40717;SDS011;26405;51.850;-2.246;2023-02-22T05:51:03;24.88;;;16.63;;
40717;SDS011;26405;51.850;-2.246;2023-02-22T05:53:28;27.17;;;17.73;;
40717;SDS011;26405;51.850;-2.246;2023-02-22T05:55:54;25.95;;;17.90;;
40717;SDS011;26405;51.850;-2.246;2023-02-22T05:58:19;26.67;;;17.38;;
40717;SDS011;26405;51.850;-2.246;2023-02-22T06:00:44;25.98;;;17.75;;
40717;SDS011;26405;51.850;-2.246;2023-02-22T06:03:10;26.35;;;17.77;;
40717;SDS011;26405;51.850;-2.246;2023-02-22T06:05:36;23.60;;;15.33;;
40717;SDS011;26405;51.850;-2.246;2023-02-22T06:08:02;25.25;;;15.88;;
40717;SDS011;26405;51.850;-2.246;2023-02-22T06:10:28;25.92;;;17.15;;
40717;SDS011;26405;51.850;-2.246;2023-02-22T06:12:54;25.15;;;15.70;;
40717;SDS011;26405;51.850;-2.246;2023-02-22T06:15:20;24.85;;;15.32;;
40717;SDS011;26405;51.850;-2.246;2023-02-22T06:17:45;25.52;;;17.08;;
40717;SDS011;26405;51.850;-2.246;2023-02-22T06:20:12;26.77;;;17.70;;
40717;SDS011;26405;51.850;-2.246;2023-02-22T06:22:37;26.52;;;17.40;;
40717;SDS011;26405;51.850;-2.246;2023-02-22T06:25:05;26.70;;;15.98;;
40717;SDS011;26405;51.850;-2.246;2023-02-22T06:27:31;27.33;;;15.57;;
40717;SDS011;26405;51.850;-2.246;2023-02-22T06:29:58;25.77;;;17.00;;
40717;SDS011;26405;51.850;-2.246;2023-02-22T06:32:24;27.08;;;17.52;;
40717;SDS011;26405;51.850;-2.246;2023-02-22T06:34:49;26.05;;;16.67;;
40717;SDS011;26405;51.850;-2.246;2023-02-22T06:37:14;26.67;;;16.50;;
40717;SDS011;26405;51.850;-2.246;2023-02-22T06:39:40;25.67;;;16.33;;
40717;SDS011;26405;51.850;-2.246;2023-02-22T06:42:05;26.27;;;17.45;;
40717;SDS011;26405;51.850;-2.246;2023-02-22T06:44:30;25.50;;;16.63;;
40717;SDS011;26405;51.850;-2.246;2023-02-22T06:46:55;23.90;;;15.30;;
40717;SDS011;26405;51.850;-2.246;2023-02-22T06:49:21;26.10;;;15.77;;
40717;SDS011;26405;51.850;-2.246;2023-02-22T06:51:46;29.25;;;18.42;;
40717;SDS011;26405;51.850;-2.246;2023-02-22T06:54:12;26.45;;;17.13;;
40717;SDS011;26405;51.850;-2.246;2023-02-22T06:56:37;25.65;;;16.30;;
40717;SDS011;26405;51.850;-2.246;2023-02-22T06:59:03;25.63;;;16.30;;
40717;SDS011;26405;51.850;-2.246;2023-02-22T07:01:28;26.27;;;16.17;;
40717;SDS011;26405;51.850;-2.246;2023-02-22T07:03:53;24.70;;;15.68;;
40717;SDS011;26405;51.850;-2.246;2023-02-22T07:06:19;24.77;;;16.73;;
40717;SDS011;26405;51.850;-2.246;2023-02-22T07:08:44;25.17;;;15.25;;
40717;SDS011;26405;51.850;-2.246;2023-02-22T07:11:09;26.45;;;16.60;;
40717;SDS011;26405;51.850;-2.246;2023-02-22T07:13:34;26.63;;;16.58;;
40717;SDS011;26405;51.850;-2.246;2023-02-22T07:16:00;26.15;;;16.33;;
40717;SDS011;26405;51.850;-2.246;2023-02-22T07:18:25;27.27;;;18.13;;
40717;SDS011;26405;51.850;-2.246;2023-02-22T07:20:50;25.35;;;16.30;;
40717;SDS011;26405;51.850;-2.246;2023-02-22T07:23:16;27.20;;;17.58;;
40717;SDS011;26405;51.850;-2.246;2023-02-22T07:25:41;26.70;;;17.02;;
40717;SDS011;26405;51.850;-2.246;2023-02-22T07:28:06;30.13;;;18.10;;
40717;SDS011;26405;51.850;-2.246;2023-02-22T07:30:32;25.98;;;16.33;;
40717;SDS011;26405;51.850;-2.246;2023-02-22T07:33:01;26.33;;;15.88;;
40717;SDS011;26405;51.850;-2.246;2023-02-22T07:35:37;26.05;;;16.20;;
40717;SDS011;26405;51.850;-2.246;2023-02-22T07:38:03;26.27;;;16.70;;
40717;SDS011;26405;51.850;-2.246;2023-02-22T07:40:30;28.50;;;16.83;;
40717;SDS011;26405;51.850;-2.246;2023-02-22T07:43:02;25.15;;;16.17;;
40717;SDS011;26405;51.850;-2.246;2023-02-22T07:45:29;25.92;;;15.82;;
40717;SDS011;26405;51.850;-2.246;2023-02-22T07:47:54;26.33;;;16.00;;
40717;SDS011;26405;51.850;-2.246;2023-02-22T07:50:20;27.05;;;16.80;;
40717;SDS011;26405;51.850;-2.246;2023-02-22T07:52:47;28.60;;;17.83;;
40717;SDS011;26405;51.850;-2.246;2023-02-22T07:55:13;26.73;;;16.52;;
40717;SDS011;26405;51.850;-2.246;2023-02-22T07:57:38;30.57;;;18.53;;
40717;SDS011;26405;51.850;-2.246;2023-02-22T08:00:04;26.88;;;16.67;;
40717;SDS011;26405;51.850;-2.246;2023-02-22T08:02:29;28.42;;;17.30;;
40717;SDS011;26405;51.850;-2.246;2023-02-22T08:04:54;28.00;;;16.98;;
40717;SDS011;26405;51.850;-2.246;2023-02-22T08:07:20;29.58;;;17.58;;
40717;SDS011;26405;51.850;-2.246;2023-02-22T08:09:45;31.38;;;18.67;;
40717;SDS011;26405;51.850;-2.246;2023-02-22T08:12:10;29.60;;;19.13;;
40717;SDS011;26405;51.850;-2.246;2023-02-22T08:14:35;28.23;;;18.10;;
40717;SDS011;26405;51.850;-2.246;2023-02-22T08:17:01;30.52;;;19.38;;
40717;SDS011;26405;51.850;-2.246;2023-02-22T08:19:26;29.08;;;16.95;;
40717;SDS011;26405;51.850;-2.246;2023-02-22T08:21:51;27.30;;;17.60;;
40717;SDS011;26405;51.850;-2.246;2023-02-22T08:24:16;26.90;;;18.48;;
40717;SDS011;26405;51.850;-2.246;2023-02-22T08:26:45;28.83;;;18.77;;
40717;SDS011;26405;51.850;-2.246;2023-02-22T08:29:11;26.45;;;16.02;;
40717;SDS011;26405;51.850;-2.246;2023-02-22T08:31:38;28.45;;;16.77;;
40717;SDS011;26405;51.850;-2.246;2023-02-22T08:34:03;27.52;;;17.52;;
40717;SDS011;26405;51.850;-2.246;2023-02-22T08:36:28;26.55;;;17.23;;
40717;SDS011;26405;51.850;-2.246;2023-02-22T08:38:54;29.88;;;18.38;;
40717;SDS011;26405;51.850;-2.246;2023-02-22T08:41:19;25.80;;;15.98;;
40717;SDS011;26405;51.850;-2.246;2023-02-22T08:43:44;27.20;;;16.80;;
40717;SDS011;26405;51.850;-2.246;2023-02-22T08:46:10;23.80;;;15.25;;
40717;SDS011;26405;51.850;-2.246;2023-02-22T08:48:35;33.45;;;16.33;;
40717;SDS011;26405;51.850;-2.246;2023-02-22T08:51:00;25.95;;;15.77;;
40717;SDS011;26405;51.850;-2.246;2023-02-22T08:53:25;25.92;;;14.45;;
40717;SDS011;26405;51.850;-2.246;2023-02-22T08:55:51;24.30;;;15.45;;
40717;SDS011;26405;51.850;-2.246;2023-02-22T08:58:16;24.58;;;15.55;;
40717;SDS011;26405;51.850;-2.246;2023-02-22T09:00:42;24.67;;;13.65;;
40717;SDS011;26405;51.850;-2.246;2023-02-22T09:03:09;23.42;;;13.73;;
40717;SDS011;26405;51.850;-2.246;2023-02-22T09:08:01;23.45;;;14.45;;
40717;SDS011;26405;51.850;-2.246;2023-02-22T09:10:27;22.38;;;13.18;;
40717;SDS011;26405;51.850;-2.246;2023-02-22T09:12:53;24.02;;;13.30;;
40717;SDS011;26405;51.850;-2.246;2023-02-22T09:15:22;22.15;;;12.68;;
40717;SDS011;26405;51.850;-2.246;2023-02-22T09:17:48;20.05;;;10.60;;
40717;SDS011;26405;51.850;-2.246;2023-02-22T09:20:15;24.10;;;11.60;;
40717;SDS011;26405;51.850;-2.246;2023-02-22T09:22:43;21.45;;;12.05;;
40717;SDS011;26405;51.850;-2.246;2023-02-22T09:25:08;20.48;;;11.05;;
40717;SDS011;26405;51.850;-2.246;2023-02-22T09:27:33;22.23;;;11.57;;
40717;SDS011;26405;51.850;-2.246;2023-02-22T09:29:59;20.42;;;11.45;;
40717;SDS011;26405;51.850;-2.246;2023-02-22T09:32:24;20.88;;;11.90;;
40717;SDS011;26405;51.850;-2.246;2023-02-22T09:37:16;22.57;;;12.57;;
40717;SDS011;26405;51.850;-2.246;2023-02-22T09:39:42;19.35;;;10.93;;
40717;SDS011;26405;51.850;-2.246;2023-02-22T09:42:15;20.20;;;10.48;;
40717;SDS011;26405;51.850;-2.246;2023-02-22T09:45:04;18.08;;;9.57;;
40717;SDS011;26405;51.850;-2.246;2023-02-22T09:47:47;18.83;;;8.88;;
40717;SDS011;26405;51.850;-2.246;2023-02-22T09:50:14;11.07;;;4.95;;
40717;SDS011;26405;51.850;-2.246;2023-02-22T09:52:55;9.80;;;4.63;;
40717;SDS011;26405;51.850;-2.246;2023-02-22T09:58:11;4.47;;;3.10;;
40717;SDS011;26405;51.850;-2.246;2023-02-22T10:00:38;2.25;;;2.05;;
40717;SDS011;26405;51.850;-2.246;2023-02-22T10:05:39;2.50;;;1.85;;
40717;SDS011;26405;51.850;-2.246;2023-02-22T10:10:31;2.63;;;1.88;;
40717;SDS011;26405;51.850;-2.246;2023-02-22T10:20:46;2.00;;;1.48;;
40717;SDS011;26405;51.850;-2.246;2023-02-22T10:25:43;1.42;;;1.33;;
40717;SDS011;26405;51.850;-2.246;2023-02-22T10:28:26;2.13;;;1.40;;
40717;SDS011;26405;51.850;-2.246;2023-02-22T10:31:01;1.50;;;1.40;;
40717;SDS011;26405;51.850;-2.246;2023-02-22T10:33:46;1.92;;;1.33;;
40717;SDS011;26405;51.850;-2.246;2023-02-22T10:36:19;3.25;;;1.38;;
40717;SDS011;26405;51.850;-2.246;2023-02-22T10:38:47;1.65;;;1.45;;
40717;SDS011;26405;51.850;-2.246;2023-02-22T10:41:20;1.80;;;1.25;;
40717;SDS011;26405;51.850;-2.246;2023-02-22T10:43:48;1.85;;;1.73;;
40717;SDS011;26405;51.850;-2.246;2023-02-22T10:46:14;2.60;;;1.05;;
40717;SDS011;26405;51.850;-2.246;2023-02-22T10:48:40;1.75;;;1.27;;
40717;SDS011;26405;51.850;-2.246;2023-02-22T10:51:07;1.75;;;1.38;;
40717;SDS011;26405;51.850;-2.246;2023-02-22T10:53:33;1.30;;;1.20;;
40717;SDS011;26405;51.850;-2.246;2023-02-22T10:56:17;2.00;;;1.27;;
40717;SDS011;26405;51.850;-2.246;2023-02-22T10:58:49;4.35;;;1.70;;
40717;SDS011;26405;51.850;-2.246;2023-02-22T11:01:26;1.50;;;1.30;;
40717;SDS011;26405;51.850;-2.246;2023-02-22T11:04:07;2.30;;;1.50;;
40717;SDS011;26405;51.850;-2.246;2023-02-22T11:06:35;2.45;;;1.30;;
40717;SDS011;26405;51.850;-2.246;2023-02-22T11:09:05;1.35;;;1.25;;
40717;SDS011;26405;51.850;-2.246;2023-02-22T11:11:34;1.50;;;1.40;;
40717;SDS011;26405;51.850;-2.246;2023-02-22T11:13:59;3.00;;;1.50;;
40717;SDS011;26405;51.850;-2.246;2023-02-22T11:18:58;2.13;;;1.13;;
40717;SDS011;26405;51.850;-2.246;2023-02-22T11:21:24;2.13;;;1.40;;
40717;SDS011;26405;51.850;-2.246;2023-02-22T11:23:50;1.60;;;1.50;;
40717;SDS011;26405;51.850;-2.246;2023-02-22T11:26:25;2.53;;;1.50;;
40717;SDS011;26405;51.850;-2.246;2023-02-22T11:28:50;1.23;;;1.17;;
40717;SDS011;26405;51.850;-2.246;2023-02-22T11:31:24;3.60;;;1.75;;
40717;SDS011;26405;51.850;-2.246;2023-02-22T11:33:54;2.85;;;1.52;;
40717;SDS011;26405;51.850;-2.246;2023-02-22T11:36:31;5.15;;;2.10;;
40717;SDS011;26405;51.850;-2.246;2023-02-22T11:38:57;1.80;;;1.40;;
40717;SDS011;26405;51.850;-2.246;2023-02-22T11:41:29;1.40;;;1.30;;
40717;SDS011;26405;51.850;-2.246;2023-02-22T11:46:39;2.67;;;1.38;;
40717;SDS011;26405;51.850;-2.246;2023-02-22T11:49:05;3.00;;;1.33;;
40717;SDS011;26405;51.850;-2.246;2023-02-22T11:56:39;2.60;;;1.13;;
40717;SDS011;26405;51.850;-2.246;2023-02-22T12:01:57;1.40;;;1.30;;
40717;SDS011;26405;51.850;-2.246;2023-02-22T12:07:35;1.55;;;1.10;;
40717;SDS011;26405;51.850;-2.246;2023-02-22T12:19:51;1.92;;;0.93;;
40717;SDS011;26405;51.850;-2.246;2023-02-22T12:22:31;1.27;;;1.17;;
40717;SDS011;26405;51.850;-2.246;2023-02-22T12:25:02;2.17;;;1.10;;
40717;SDS011;26405;51.850;-2.246;2023-02-22T12:28:06;4.10;;;1.50;;
40717;SDS011;26405;51.850;-2.246;2023-02-22T12:30:23;1.15;;;1.05;;
40717;SDS011;26405;51.850;-2.246;2023-02-22T12:32:52;1.85;;;1.10;;
40717;SDS011;26405;51.850;-2.246;2023-02-22T12:40:44;1.63;;;1.30;;
40717;SDS011;26405;51.850;-2.246;2023-02-22T12:43:21;1.60;;;1.20;;
40717;SDS011;26405;51.850;-2.246;2023-02-22T12:50:57;1.05;;;1.05;;
40717;SDS011;26405;51.850;-2.246;2023-02-22T12:55:54;1.98;;;1.60;;
40717;SDS011;26405;51.850;-2.246;2023-02-22T12:58:26;1.42;;;1.33;;
40717;SDS011;26405;51.850;-2.246;2023-02-22T13:03:49;1.13;;;1.02;;
40717;SDS011;26405;51.850;-2.246;2023-02-22T13:21:56;2.55;;;1.30;;
40717;SDS011;26405;51.850;-2.246;2023-02-22T13:24:24;2.55;;;1.00;;
40717;SDS011;26405;51.850;-2.246;2023-02-22T13:27:03;1.17;;;1.10;;
40717;SDS011;26405;51.850;-2.246;2023-02-22T13:29:52;1.27;;;1.25;;
40717;SDS011;26405;51.850;-2.246;2023-02-22T13:52:45;3.72;;;1.83;;
40717;SDS011;26405;51.850;-2.246;2023-02-22T13:55:19;3.97;;;1.65;;
40717;SDS011;26405;51.850;-2.246;2023-02-22T13:57:46;2.25;;;1.60;;
40717;SDS011;26405;51.850;-2.246;2023-02-22T14:05:35;3.75;;;1.58;;
40717;SDS011;26405;51.850;-2.246;2023-02-22T14:08:01;1.30;;;1.20;;
40717;SDS011;26405;51.850;-2.246;2023-02-22T14:13:05;1.90;;;1.02;;
40717;SDS011;26405;51.850;-2.246;2023-02-22T14:15:31;1.47;;;1.37;;
40717;SDS011;26405;51.850;-2.246;2023-02-22T14:18:00;1.70;;;1.60;;
40717;SDS011;26405;51.850;-2.246;2023-02-22T14:20:29;4.63;;;2.45;;
40717;SDS011;26405;51.850;-2.246;2023-02-22T14:22:57;7.00;;;3.40;;
40717;SDS011;26405;51.850;-2.246;2023-02-22T14:31:10;8.15;;;3.45;;
40717;SDS011;26405;51.850;-2.246;2023-02-22T14:36:15;12.57;;;4.43;;
40717;SDS011;26405;51.850;-2.246;2023-02-22T14:38:42;3.67;;;2.10;;
40717;SDS011;26405;51.850;-2.246;2023-02-22T14:41:08;3.13;;;1.73;;
40717;SDS011;26405;51.850;-2.246;2023-02-22T14:43:35;1.95;;;1.77;;
40717;SDS011;26405;51.850;-2.246;2023-02-22T14:46:01;2.13;;;1.90;;
40717;SDS011;26405;51.850;-2.246;2023-02-22T14:51:04;2.83;;;1.23;;
40717;SDS011;26405;51.850;-2.246;2023-02-22T14:53:35;2.60;;;1.27;;
40717;SDS011;26405;51.850;-2.246;2023-02-22T14:56:08;1.73;;;1.25;;
40717;SDS011;26405;51.850;-2.246;2023-02-22T14:58:41;1.85;;;1.60;;
40717;SDS011;26405;51.850;-2.246;2023-02-22T15:01:31;1.60;;;1.27;;
40717;SDS011;26405;51.850;-2.246;2023-02-22T15:03:55;1.38;;;1.20;;
40717;SDS011;26405;51.850;-2.246;2023-02-22T15:06:23;3.35;;;1.50;;
40717;SDS011;26405;51.850;-2.246;2023-02-22T15:11:24;1.87;;;1.60;;
40717;SDS011;26405;51.850;-2.246;2023-02-22T15:13:51;2.05;;;1.70;;
40717;SDS011;26405;51.850;-2.246;2023-02-22T15:16:17;3.92;;;1.50;;
40717;SDS011;26405;51.850;-2.246;2023-02-22T15:18:43;1.55;;;1.42;;
40717;SDS011;26405;51.850;-2.246;2023-02-22T15:21:11;2.03;;;1.63;;
40717;SDS011;26405;51.850;-2.246;2023-02-22T15:26:18;2.08;;;1.77;;
40717;SDS011;26405;51.850;-2.246;2023-02-22T15:28:46;3.80;;;1.75;;
40717;SDS011;26405;51.850;-2.246;2023-02-22T15:31:44;3.22;;;2.10;;
40717;SDS011;26405;51.850;-2.246;2023-02-22T15:36:34;3.17;;;1.70;;
40717;SDS011;26405;51.850;-2.246;2023-02-22T15:38:59;2.70;;;1.58;;
40717;SDS011;26405;51.850;-2.246;2023-02-22T15:41:27;2.35;;;1.00;;
40717;SDS011;26405;51.850;-2.246;2023-02-22T15:44:02;2.42;;;1.40;;
40717;SDS011;26405;51.850;-2.246;2023-02-22T15:46:29;1.88;;;1.40;;
40717;SDS011;26405;51.850;-2.246;2023-02-22T15:49:17;1.60;;;1.30;;
40717;SDS011;26405;51.850;-2.246;2023-02-22T15:51:43;2.10;;;1.48;;
40717;SDS011;26405;51.850;-2.246;2023-02-22T15:56:39;3.58;;;1.58;;
40717;SDS011;26405;51.850;-2.246;2023-02-22T15:59:07;3.92;;;1.95;;
40717;SDS011;26405;51.850;-2.246;2023-02-22T16:01:42;1.52;;;1.42;;
40717;SDS011;26405;51.850;-2.246;2023-02-22T16:04:18;1.35;;;1.30;;
40717;SDS011;26405;51.850;-2.246;2023-02-22T16:06:44;2.85;;;1.15;;
40717;SDS011;26405;51.850;-2.246;2023-02-22T16:09:15;2.08;;;1.70;;
40717;SDS011;26405;51.850;-2.246;2023-02-22T16:11:42;4.68;;;1.80;;
40717;SDS011;26405;51.850;-2.246;2023-02-22T16:19:36;4.70;;;2.30;;
40717;SDS011;26405;51.850;-2.246;2023-02-22T16:22:03;5.68;;;2.75;;
40717;SDS011;26405;51.850;-2.246;2023-02-22T16:24:30;4.47;;;2.72;;
40717;SDS011;26405;51.850;-2.246;2023-02-22T16:27:06;4.93;;;2.20;;
40717;SDS011;26405;51.850;-2.246;2023-02-22T16:29:39;5.68;;;2.00;;
40717;SDS011;26405;51.850;-2.246;2023-02-22T16:32:05;3.38;;;1.92;;
40717;SDS011;26405;51.850;-2.246;2023-02-22T16:34:30;5.57;;;2.97;;
40717;SDS011;26405;51.850;-2.246;2023-02-22T16:36:55;5.63;;;3.33;;
40717;SDS011;26405;51.850;-2.246;2023-02-22T16:39:22;2.35;;;1.77;;
40717;SDS011;26405;51.850;-2.246;2023-02-22T16:41:49;2.35;;;1.80;;
40717;SDS011;26405;51.850;-2.246;2023-02-22T16:44:14;2.83;;;1.63;;
40717;SDS011;26405;51.850;-2.246;2023-02-22T16:46:40;1.95;;;1.73;;
40717;SDS011;26405;51.850;-2.246;2023-02-22T16:49:07;2.03;;;1.58;;
40717;SDS011;26405;51.850;-2.246;2023-02-22T16:53:58;2.47;;;1.67;;
40717;SDS011;26405;51.850;-2.246;2023-02-22T16:56:26;1.33;;;1.23;;
40717;SDS011;26405;51.850;-2.246;2023-02-22T16:58:52;1.58;;;1.30;;
40717;SDS011;26405;51.850;-2.246;2023-02-22T17:01:18;1.73;;;1.48;;
40717;SDS011;26405;51.850;-2.246;2023-02-22T17:03:43;3.70;;;1.38;;
40717;SDS011;26405;51.850;-2.246;2023-02-22T17:06:09;2.63;;;1.75;;
40717;SDS011;26405;51.850;-2.246;2023-02-22T17:08:35;7.00;;;1.95;;
40717;SDS011;26405;51.850;-2.246;2023-02-22T17:11:00;3.67;;;1.83;;
40717;SDS011;26405;51.850;-2.246;2023-02-22T17:13:26;4.05;;;1.98;;
40717;SDS011;26405;51.850;-2.246;2023-02-22T17:15:51;3.65;;;2.10;;
40717;SDS011;26405;51.850;-2.246;2023-02-22T17:20:47;2.45;;;1.75;;
40717;SDS011;26405;51.850;-2.246;2023-02-22T17:23:12;4.90;;;2.05;;
40717;SDS011;26405;51.850;-2.246;2023-02-22T17:25:41;3.22;;;2.40;;
40717;SDS011;26405;51.850;-2.246;2023-02-22T17:28:07;3.80;;;2.03;;
40717;SDS011;26405;51.850;-2.246;2023-02-22T17:30:33;4.10;;;2.60;;
40717;SDS011;26405;51.850;-2.246;2023-02-22T17:33:00;4.47;;;2.65;;
40717;SDS011;26405;51.850;-2.246;2023-02-22T17:35:30;6.90;;;2.60;;